Pagrindinis puslapis
METAR-TAF:

METAR-TAF

Oro uostai :

Vanas, Turkija

platuma: 38-27N, ilguma: 043-19E, Aukštis: 1667 m

Dabartinis oras

Ataskaita buvo paskelbta 1 valandą ir 18 minutes, ne 03:50 UTC
Vėjas 4 kt iš Rytų/Šiaurės Rytų
Temperatūra 0°C
Drėgmė 74%
Slėgis 1017 hPa
Matomumas: 8000 m
Išsisklaidę debesys ne aukštis 3500 ft
Su prošvaistėmis ne aukštis 7000 ft

METAR: LTCI 100350Z 06004KT 8000 SCT035 BKN070 00/M04 Q1017 NOSIG

Laikas: 08:08 (05:08 UTC)

Prognozė

Ataskaita buvo paskelbta 3 valandos ir 28 minutes, ne 01:40 UTC
Prognozė galioja nuo 10 metu 03 UTC su 10 metu 12 UTC
Vėjas 8 kt iš Rytų
Matomumas: 8000 m
Išsisklaidę debesys ne aukštis 3500 ft
Su prošvaistėmis ne aukštis 7000 ft
Tikimybė 40% :
Laikinai
nuo 10 metu 09 UTC su 10 metu 12 UTC
Matomumas: 2800 m
Išsisklaidę debesys ne aukštis 1000 ft
Su prošvaistėmis ne aukštis 3000 ft
lietus, sniegas, rūkana

TAF: LTCI 100140Z 1003/1012 09008KT 8000 SCT035 BKN070 PROB40 TEMPO 1009/1012 2800 -RASN BR SCT010 BKN030

Orai ataskaitas ir orų prognozės (METAR, TAF).

turimą stotys yra geltonos ir raudonos taškus žemėlapyje.

Perkelti pele per norėdami pamatyti stoties vardą.

Tada spustelėkite, norėdami matyti oro stebėjimo ir prognozės.

Norėdami pakeisti žemėlapį: spustelėkite ant žalios mygtukų su juodo kryžiaus žemyn,; žalią mygtuką su brūkšneliu, jei norite nutolinti; arba žalių rodyklių gretimoms žemėlapius.


METAR-TAF: